createdAt,value
2023-02-16T00:02:41.190Z,18.80
2023-02-16T00:05:28.619Z,19.57
2023-02-16T00:08:16.018Z,18.77
2023-02-16T00:11:22.339Z,18.10
2023-02-16T00:14:10.879Z,17.77
2023-02-16T00:16:59.715Z,19.40
2023-02-16T00:19:47.083Z,19.33
2023-02-16T00:22:35.569Z,17.10
2023-02-16T00:25:22.945Z,18.93
2023-02-16T00:28:29.024Z,18.13
2023-02-16T00:31:18.487Z,18.23
2023-02-16T00:34:19.893Z,17.90
2023-02-16T00:37:11.989Z,17.77
2023-02-16T00:40:00.528Z,17.97
2023-02-16T00:42:48.133Z,17.93
2023-02-16T00:45:37.549Z,19.43
2023-02-16T00:48:25.127Z,21.27
2023-02-16T00:51:25.087Z,21.70
2023-02-16T00:54:13.243Z,20.63
2023-02-16T00:57:00.640Z,22.33
2023-02-16T00:59:49.644Z,22.50
2023-02-16T01:02:37.086Z,22.03
2023-02-16T01:05:24.722Z,21.47
2023-02-16T01:08:32.042Z,22.27
2023-02-16T01:11:19.672Z,23.17
2023-02-16T01:14:07.119Z,22.70
2023-02-16T01:16:54.514Z,22.60
2023-02-16T01:19:41.910Z,23.47
2023-02-16T01:22:33.346Z,24.17
2023-02-16T01:25:20.930Z,29.77
2023-02-16T01:28:19.766Z,25.53
2023-02-16T01:31:07.430Z,24.37
2023-02-16T01:33:55.009Z,24.37
2023-02-16T01:36:43.719Z,24.13
2023-02-16T01:39:31.081Z,24.10
2023-02-16T01:42:32.603Z,23.03
2023-02-16T01:45:22.366Z,22.80
2023-02-16T01:48:22.118Z,22.10
2023-02-16T01:51:12.269Z,21.33
2023-02-16T01:54:06.338Z,22.77
2023-02-16T01:56:58.741Z,21.40
2023-02-16T01:59:46.115Z,21.60
2023-02-16T02:02:36.747Z,21.80
2023-02-16T02:05:35.194Z,22.43
2023-02-16T02:08:22.614Z,21.97
2023-02-16T02:11:20.896Z,21.30
2023-02-16T02:14:12.064Z,19.47
2023-02-16T02:17:01.886Z,20.60
2023-02-16T02:19:59.997Z,21.27
2023-02-16T02:23:24.343Z,20.70
2023-02-16T02:26:32.251Z,21.13
2023-02-16T02:29:45.571Z,21.07
2023-02-16T02:32:45.293Z,20.63
2023-02-16T02:35:41.658Z,20.87
2023-02-16T02:38:35.195Z,20.83
2023-02-16T02:41:51.737Z,21.80
2023-02-16T02:44:44.865Z,21.67
2023-02-16T02:47:39.566Z,21.27
2023-02-16T02:51:04.787Z,23.00
2023-02-16T02:54:15.097Z,22.50
2023-02-16T02:57:21.142Z,24.03
2023-02-16T03:00:27.013Z,23.63
2023-02-16T03:03:20.658Z,25.03
2023-02-16T03:06:08.110Z,23.97
2023-02-16T03:08:57.402Z,24.40
2023-02-16T03:12:05.952Z,25.60
2023-02-16T03:14:57.844Z,25.13
2023-02-16T03:18:04.782Z,25.37
2023-02-16T03:21:10.742Z,24.83
2023-02-16T03:24:17.815Z,24.93
2023-02-16T03:27:23.824Z,24.20
2023-02-16T03:30:11.821Z,24.30
2023-02-16T03:32:59.269Z,26.90
2023-02-16T03:35:46.760Z,27.30
2023-02-16T03:38:34.177Z,26.93
2023-02-16T03:41:21.532Z,27.33
2023-02-16T03:44:08.940Z,26.43
2023-02-16T03:46:56.363Z,27.10
2023-02-16T03:49:43.866Z,27.53
2023-02-16T03:52:31.252Z,28.63
2023-02-16T03:55:18.738Z,28.07
2023-02-16T03:58:06.887Z,29.40
2023-02-16T04:00:54.354Z,28.03
2023-02-16T04:03:41.723Z,26.63
2023-02-16T04:06:29.632Z,25.23
2023-02-16T04:09:17.058Z,24.40
2023-02-16T04:12:23.113Z,26.03
2023-02-16T04:15:12.649Z,26.83
2023-02-16T04:18:00.142Z,25.50
2023-02-16T04:20:47.513Z,27.93
2023-02-16T04:23:34.918Z,26.70
2023-02-16T04:26:22.306Z,28.07
2023-02-16T04:29:09.674Z,29.67
2023-02-16T04:31:57.180Z,30.20
2023-02-16T04:34:44.570Z,28.70
2023-02-16T04:37:31.925Z,28.03
2023-02-16T04:40:19.416Z,27.43
2023-02-16T04:43:06.768Z,27.23
2023-02-16T04:45:54.332Z,28.83
2023-02-16T04:48:41.776Z,27.37
2023-02-16T04:51:29.173Z,30.27
2023-02-16T04:54:16.677Z,30.10
2023-02-16T04:57:04.890Z,35.20
2023-02-16T04:59:52.313Z,30.27
2023-02-16T05:02:39.680Z,29.10
2023-02-16T05:05:27.120Z,30.93
2023-02-16T05:08:14.456Z,29.90
2023-02-16T05:11:20.676Z,29.43
2023-02-16T05:14:26.853Z,34.37
2023-02-16T05:17:14.226Z,34.80
2023-02-16T05:20:02.553Z,37.73
2023-02-16T05:22:49.936Z,30.03
2023-02-16T05:25:37.312Z,33.27
2023-02-16T05:28:24.731Z,41.27
2023-02-16T05:31:12.217Z,34.57
2023-02-16T05:33:59.652Z,35.77
2023-02-16T05:36:47.028Z,31.87
2023-02-16T05:39:34.419Z,33.77
2023-02-16T05:42:21.824Z,38.60
2023-02-16T05:45:09.862Z,38.57
2023-02-16T05:47:57.269Z,33.80
2023-02-16T05:50:44.627Z,32.00
2023-02-16T05:53:31.982Z,31.17
2023-02-16T05:56:20.014Z,29.70
2023-02-16T05:59:08.000Z,43.78
2023-02-16T06:01:55.375Z,31.93
2023-02-16T06:04:42.802Z,30.57
2023-02-16T06:07:30.211Z,31.87
2023-02-16T06:10:17.884Z,30.77
2023-02-16T06:13:05.249Z,29.17
2023-02-16T06:15:54.037Z,28.17
2023-02-16T06:18:43.348Z,29.00
2023-02-16T06:21:32.318Z,31.70
2023-02-16T06:24:19.821Z,33.47
2023-02-16T06:27:07.282Z,32.40
2023-02-16T06:29:55.089Z,30.47
2023-02-16T06:32:42.479Z,30.63
2023-02-16T06:35:29.960Z,33.10
2023-02-16T06:38:17.337Z,35.10
2023-02-16T06:41:05.504Z,38.77
2023-02-16T06:43:53.044Z,37.27
2023-02-16T06:46:41.286Z,38.43
2023-02-16T06:49:28.779Z,36.30
2023-02-16T06:52:16.197Z,34.27
2023-02-16T06:55:04.366Z,38.23
2023-02-16T06:57:51.735Z,32.87
2023-02-16T07:00:39.239Z,32.47
2023-02-16T07:03:26.711Z,34.30
2023-02-16T07:06:14.167Z,35.97
2023-02-16T07:09:01.740Z,35.87
2023-02-16T07:11:49.103Z,37.93
2023-02-16T07:14:36.474Z,36.37
2023-02-16T07:17:23.825Z,35.97
2023-02-16T07:20:12.655Z,38.30
2023-02-16T07:23:00.038Z,37.50
2023-02-16T07:25:47.865Z,37.63
2023-02-16T07:28:35.444Z,39.30
2023-02-16T07:31:26.195Z,37.73
2023-02-16T07:34:13.709Z,35.37
2023-02-16T07:37:01.081Z,36.60
2023-02-16T07:39:48.516Z,35.03
2023-02-16T07:42:35.951Z,36.93
2023-02-16T07:45:23.330Z,35.17
2023-02-16T07:48:10.704Z,37.40
2023-02-16T07:50:58.132Z,36.03
2023-02-16T07:53:45.481Z,36.70
2023-02-16T07:56:33.516Z,36.73
2023-02-16T07:59:20.866Z,40.13
2023-02-16T08:02:08.450Z,38.63
2023-02-16T08:04:55.808Z,40.33
2023-02-16T08:07:43.955Z,39.77
2023-02-16T08:10:32.487Z,41.67
2023-02-16T08:13:19.879Z,40.67
2023-02-16T08:16:10.972Z,40.83
2023-02-16T08:18:59.925Z,39.53
2023-02-16T08:21:49.396Z,39.73
2023-02-16T08:24:37.412Z,39.70
2023-02-16T08:27:25.890Z,39.10
2023-02-16T08:30:13.691Z,40.67
2023-02-16T08:33:01.855Z,39.17
2023-02-16T08:35:49.310Z,38.00
2023-02-16T08:38:37.002Z,39.20
2023-02-16T08:41:25.110Z,38.87
2023-02-16T08:44:12.950Z,38.10
2023-02-16T08:47:01.072Z,36.17
2023-02-16T08:49:48.500Z,35.60
2023-02-16T08:52:36.482Z,34.60
2023-02-16T08:55:24.106Z,35.07
2023-02-16T08:58:11.485Z,34.07
2023-02-16T09:00:59.020Z,33.73
2023-02-16T09:03:46.656Z,34.43
2023-02-16T09:06:37.042Z,33.17
2023-02-16T09:09:24.674Z,33.73
2023-02-16T09:12:12.062Z,35.83
2023-02-16T09:14:59.432Z,33.13
2023-02-16T09:17:46.934Z,32.90
2023-02-16T09:20:34.431Z,31.33
2023-02-16T09:23:21.992Z,34.47
2023-02-16T09:26:09.899Z,32.93
2023-02-16T09:28:58.882Z,33.40
2023-02-16T09:31:46.733Z,33.27
2023-02-16T09:34:34.197Z,31.47
2023-02-16T09:37:21.610Z,32.67
2023-02-16T09:40:11.732Z,31.97
2023-02-16T09:43:09.113Z,31.73
2023-02-16T09:45:58.854Z,32.43
2023-02-16T09:48:49.190Z,30.30
2023-02-16T09:51:44.497Z,30.03
2023-02-16T09:54:31.858Z,31.20
2023-02-16T09:57:22.553Z,30.73
2023-02-16T10:00:28.243Z,30.20
2023-02-16T10:03:23.744Z,28.73
2023-02-16T10:06:13.964Z,30.17
2023-02-16T10:09:09.173Z,32.13
2023-02-16T10:12:02.063Z,32.93
2023-02-16T10:14:51.526Z,30.63
2023-02-16T10:17:38.961Z,32.57
2023-02-16T10:20:32.552Z,30.23
2023-02-16T10:23:42.793Z,30.77
2023-02-16T10:26:35.126Z,32.27
2023-02-16T10:29:23.919Z,31.17
2023-02-16T10:32:11.651Z,33.57
2023-02-16T10:35:03.118Z,30.90
2023-02-16T10:38:00.282Z,30.53
2023-02-16T10:40:58.416Z,30.57
2023-02-16T10:43:48.511Z,33.33
2023-02-16T10:46:39.388Z,30.80
2023-02-16T10:49:26.993Z,30.53
2023-02-16T10:52:14.353Z,31.43
2023-02-16T10:55:02.222Z,29.90
2023-02-16T10:57:54.664Z,32.03
2023-02-16T11:00:54.185Z,31.53
2023-02-16T11:03:55.141Z,32.43
2023-02-16T11:06:42.507Z,30.10
2023-02-16T11:09:30.399Z,31.60
2023-02-16T11:12:24.328Z,31.53
2023-02-16T11:15:16.521Z,32.57
2023-02-16T11:18:08.661Z,33.17
2023-02-16T11:20:56.486Z,33.00
2023-02-16T11:23:45.347Z,32.63
2023-02-16T11:26:32.691Z,31.67
2023-02-16T11:29:20.755Z,32.50
2023-02-16T11:32:09.543Z,32.27
2023-02-16T11:34:58.411Z,32.50
2023-02-16T11:37:46.304Z,33.00
2023-02-16T11:40:34.348Z,33.97
2023-02-16T11:43:22.240Z,31.87
2023-02-16T11:46:16.559Z,32.07
2023-02-16T11:49:42.427Z,32.03
2023-02-16T11:52:32.476Z,33.43
2023-02-16T11:55:26.967Z,31.50
2023-02-16T11:58:15.523Z,30.20
2023-02-16T12:01:06.076Z,30.23
2023-02-16T12:03:53.618Z,31.13
2023-02-16T12:06:56.058Z,30.17
2023-02-16T12:09:46.363Z,28.80
2023-02-16T12:12:39.066Z,29.93
2023-02-16T12:15:30.381Z,30.30
2023-02-16T12:18:36.937Z,29.30
2023-02-16T12:21:35.565Z,29.13
2023-02-16T12:24:32.006Z,30.80
2023-02-16T12:27:22.676Z,31.03
2023-02-16T12:30:13.104Z,31.47
2023-02-16T12:33:10.684Z,32.80
2023-02-16T12:36:08.020Z,29.83
2023-02-16T12:39:14.249Z,30.37
2023-02-16T12:42:12.336Z,31.53
2023-02-16T12:45:05.460Z,29.63
2023-02-16T12:47:52.874Z,31.53
2023-02-16T12:50:42.269Z,30.47
2023-02-16T12:53:42.502Z,32.97
2023-02-16T12:56:38.262Z,30.87
2023-02-16T12:59:34.960Z,31.43
2023-02-16T13:02:32.099Z,31.63
2023-02-16T13:05:32.592Z,31.47
2023-02-16T13:08:27.577Z,32.70
2023-02-16T13:11:15.213Z,31.23
2023-02-16T13:14:04.601Z,31.73
2023-02-16T13:16:55.173Z,30.63
2023-02-16T13:19:43.535Z,31.50
2023-02-16T13:22:36.597Z,30.80
2023-02-16T13:25:34.021Z,31.90
2023-02-16T13:28:31.379Z,32.67
2023-02-16T13:31:37.760Z,33.33
2023-02-16T13:34:45.169Z,33.43
2023-02-16T13:37:32.504Z,32.57
2023-02-16T13:40:32.935Z,33.70
2023-02-16T13:43:40.956Z,34.37
2023-02-16T13:46:31.487Z,36.30
2023-02-16T13:49:31.278Z,35.23
2023-02-16T13:52:27.788Z,33.40
2023-02-16T13:55:24.368Z,36.57
2023-02-16T13:58:14.794Z,37.13
2023-02-16T14:01:22.179Z,32.20
2023-02-16T14:04:14.928Z,39.33
2023-02-16T14:07:07.223Z,37.57
2023-02-16T14:09:54.582Z,36.50
2023-02-16T14:12:42.105Z,37.67
2023-02-16T14:15:29.515Z,36.80
2023-02-16T14:18:32.793Z,42.63
2023-02-16T14:21:33.155Z,44.77
2023-02-16T14:24:33.169Z,40.30
2023-02-16T14:27:39.474Z,42.60
2023-02-16T14:30:45.623Z,42.67
2023-02-16T14:33:41.540Z,43.23
2023-02-16T14:36:30.071Z,44.50
2023-02-16T14:39:21.940Z,41.87
2023-02-16T14:42:14.732Z,39.93
2023-02-16T14:45:09.641Z,42.37
2023-02-16T14:48:07.164Z,41.10
2023-02-16T14:51:00.588Z,41.60
2023-02-16T14:53:47.940Z,43.33
2023-02-16T14:56:54.330Z,43.57
2023-02-16T14:59:53.670Z,43.93
2023-02-16T15:02:43.126Z,42.70
2023-02-16T15:05:32.904Z,39.87
2023-02-16T15:08:25.195Z,41.87
2023-02-16T15:11:23.667Z,41.90
2023-02-16T15:14:12.106Z,38.90
2023-02-16T15:16:59.527Z,40.73
2023-02-16T15:19:48.058Z,38.23
2023-02-16T15:22:38.744Z,39.00
2023-02-16T15:25:34.883Z,37.53
2023-02-16T15:28:25.974Z,38.13
2023-02-16T15:31:18.115Z,35.83
2023-02-16T15:34:07.507Z,38.57
2023-02-16T15:36:54.951Z,36.93
2023-02-16T15:39:56.027Z,39.57
2023-02-16T15:42:50.061Z,37.80
2023-02-16T15:45:38.046Z,37.17
2023-02-16T15:48:25.541Z,38.20
2023-02-16T15:51:18.749Z,37.40
2023-02-16T15:54:08.021Z,37.37
2023-02-16T15:56:56.416Z,37.13
2023-02-16T15:59:43.769Z,39.27
2023-02-16T16:02:36.514Z,36.97
2023-02-16T16:05:28.312Z,37.80
2023-02-16T16:08:17.573Z,40.87
2023-02-16T16:11:05.767Z,39.87
2023-02-16T16:13:53.670Z,40.50
2023-02-16T16:16:41.399Z,40.87
2023-02-16T16:19:38.594Z,39.37
2023-02-16T16:22:32.888Z,39.60
2023-02-16T16:25:32.538Z,40.43
2023-02-16T16:28:29.126Z,40.63
2023-02-16T16:31:17.996Z,40.77
2023-02-16T16:34:09.803Z,42.63
2023-02-16T16:36:58.417Z,40.83
2023-02-16T16:39:57.408Z,39.30
2023-02-16T16:43:04.861Z,42.30
2023-02-16T16:45:56.714Z,41.40
2023-02-16T16:48:46.646Z,46.70
2023-02-16T16:51:33.969Z,46.03
2023-02-16T16:54:37.201Z,47.53
2023-02-16T16:57:24.705Z,45.17
2023-02-16T17:00:12.683Z,48.27
2023-02-16T17:03:00.102Z,47.40
2023-02-16T17:05:48.241Z,47.13
2023-02-16T17:08:35.686Z,46.50
2023-02-16T17:11:28.102Z,47.27
2023-02-16T17:14:17.158Z,45.37
2023-02-16T17:17:08.537Z,46.27
2023-02-16T17:19:55.946Z,46.77
2023-02-16T17:22:43.273Z,47.87
2023-02-16T17:25:31.507Z,47.43
2023-02-16T17:28:19.836Z,48.97
2023-02-16T17:31:08.748Z,50.03
2023-02-16T17:33:56.188Z,46.73
2023-02-16T17:36:43.608Z,48.90
2023-02-16T17:39:31.330Z,47.37
2023-02-16T17:42:18.696Z,48.80
2023-02-16T17:45:06.123Z,48.53
2023-02-16T17:47:53.516Z,47.37
2023-02-16T17:50:40.856Z,47.13
2023-02-16T17:53:28.465Z,47.37
2023-02-16T17:56:16.790Z,48.00
2023-02-16T17:59:04.364Z,54.85
2023-02-16T18:01:51.767Z,49.60
2023-02-16T18:04:42.308Z,49.97
2023-02-16T18:07:29.681Z,45.60
2023-02-16T18:10:20.265Z,48.10
2023-02-16T18:13:09.442Z,50.10
2023-02-16T18:15:57.209Z,46.90
2023-02-16T18:18:45.022Z,49.03
2023-02-16T18:21:32.366Z,47.77
2023-02-16T18:24:19.971Z,48.30
2023-02-16T18:27:07.334Z,50.07
2023-02-16T18:29:54.765Z,48.93
2023-02-16T18:32:42.441Z,50.77
2023-02-16T18:35:31.771Z,51.00
2023-02-16T18:38:21.853Z,50.87
2023-02-16T18:41:09.493Z,46.43
2023-02-16T18:43:56.828Z,48.67
2023-02-16T18:46:44.222Z,49.13
2023-02-16T18:49:31.661Z,51.57
2023-02-16T18:52:19.433Z,50.07
2023-02-16T18:55:06.981Z,52.27
2023-02-16T18:57:54.505Z,51.90
2023-02-16T19:00:41.958Z,51.63
2023-02-16T19:03:30.368Z,50.43
2023-02-16T19:06:17.867Z,49.40
2023-02-16T19:09:05.752Z,49.03
2023-02-16T19:11:53.224Z,48.50
2023-02-16T19:14:40.631Z,49.17
2023-02-16T19:17:28.024Z,47.80
2023-02-16T19:20:18.128Z,54.57
2023-02-16T19:23:05.854Z,54.50
2023-02-16T19:25:53.272Z,48.70
2023-02-16T19:28:40.985Z,49.27
2023-02-16T19:31:29.668Z,45.57
2023-02-16T19:34:17.194Z,43.30
2023-02-16T19:37:04.586Z,44.87
2023-02-16T19:39:52.138Z,42.47
2023-02-16T19:42:39.596Z,41.50
2023-02-16T19:45:26.949Z,43.67
2023-02-16T19:48:14.292Z,42.30
2023-02-16T19:51:02.612Z,43.97
2023-02-16T19:53:50.790Z,41.10
2023-02-16T19:56:40.448Z,41.80
2023-02-16T19:59:28.042Z,41.50
2023-02-16T20:02:15.599Z,40.43
2023-02-16T20:05:06.305Z,43.00
2023-02-16T20:07:53.644Z,42.83
2023-02-16T20:10:42.277Z,41.87
2023-02-16T20:13:29.629Z,42.20
2023-02-16T20:16:18.389Z,43.07
2023-02-16T20:19:05.790Z,40.60
2023-02-16T20:21:53.150Z,42.47
2023-02-16T20:24:40.539Z,41.30
2023-02-16T20:27:28.483Z,41.40
2023-02-16T20:30:17.666Z,41.63
2023-02-16T20:33:05.065Z,39.90
2023-02-16T20:35:52.580Z,39.73
2023-02-16T20:38:39.995Z,36.77
2023-02-16T20:41:27.398Z,38.23
2023-02-16T20:44:14.850Z,37.60
2023-02-16T20:47:02.275Z,36.80
2023-02-16T20:49:49.637Z,37.80
2023-02-16T20:52:36.993Z,39.47
2023-02-16T20:55:24.434Z,40.63
2023-02-16T20:58:11.771Z,39.77
2023-02-16T21:00:59.235Z,38.97
2023-02-16T21:03:46.672Z,39.73
2023-02-16T21:06:34.357Z,40.13
2023-02-16T21:09:21.796Z,48.17
2023-02-16T21:12:09.142Z,42.23
2023-02-16T21:14:56.516Z,39.97
2023-02-16T21:17:44.078Z,44.30
2023-02-16T21:20:31.797Z,44.40
2023-02-16T21:23:19.290Z,44.13
2023-02-16T21:26:06.977Z,43.57
2023-02-16T21:28:54.632Z,45.30
2023-02-16T21:31:42.104Z,45.03
2023-02-16T21:34:29.523Z,46.80
2023-02-16T21:37:16.967Z,48.07
2023-02-16T21:40:23.041Z,47.50
2023-02-16T21:43:10.708Z,47.87
2023-02-16T21:49:14.709Z,48.80
2023-02-16T21:52:05.004Z,47.23
2023-02-16T21:55:10.863Z,47.83
2023-02-16T21:57:58.241Z,47.50
2023-02-16T22:00:49.780Z,46.70
2023-02-16T22:03:37.154Z,46.57
2023-02-16T22:06:25.683Z,49.53
2023-02-16T22:09:20.288Z,48.97
2023-02-16T22:12:07.694Z,46.23
2023-02-16T22:14:55.035Z,47.47
2023-02-16T22:17:42.504Z,46.67
2023-02-16T22:20:29.910Z,45.33
2023-02-16T22:23:17.228Z,45.77
2023-02-16T22:26:06.274Z,44.43
2023-02-16T22:28:53.896Z,45.53
2023-02-16T22:31:45.454Z,44.77
2023-02-16T22:34:32.869Z,45.43
2023-02-16T22:37:20.323Z,46.10
2023-02-16T22:40:07.924Z,44.43
2023-02-16T22:42:55.287Z,44.93
2023-02-16T22:45:42.671Z,43.47
2023-02-16T22:48:30.031Z,44.53
2023-02-16T22:51:17.904Z,42.77
2023-02-16T22:54:05.687Z,44.63
2023-02-16T22:56:53.223Z,44.80
2023-02-16T22:59:40.577Z,43.23
2023-02-16T23:02:27.940Z,44.07
2023-02-16T23:05:15.291Z,43.73
2023-02-16T23:08:02.698Z,45.37
2023-02-16T23:11:02.378Z,42.07
2023-02-16T23:13:50.086Z,44.67
2023-02-16T23:16:37.515Z,41.90
2023-02-16T23:19:25.947Z,39.67
2023-02-16T23:22:13.303Z,42.67
2023-02-16T23:25:19.238Z,41.20
2023-02-16T23:28:06.783Z,40.70
2023-02-16T23:30:56.639Z,41.33
2023-02-16T23:33:44.111Z,41.47
2023-02-16T23:36:32.606Z,42.17
2023-02-16T23:39:20.036Z,41.83
2023-02-16T23:42:07.422Z,39.90
2023-02-16T23:44:55.308Z,42.20
2023-02-16T23:47:42.685Z,40.43
2023-02-16T23:50:30.320Z,41.70
2023-02-16T23:53:17.894Z,40.47
2023-02-16T23:56:06.958Z,39.40
2023-02-16T23:58:57.878Z,38.73
